| time (UTC) | temp F | wind direction | speed knots | gust knots | rain 1hr in | rain 24hr in | rain mn in | humidity % | barometer mb |
| 20260504215008 | 73 | 175 | 2.6 | 13.9 | 0.00 | 0.00 | 0.00 | 52 | 1006.8 |
| 20260504214536 | 73 | 223 | 5.2 | 13.9 | 0.00 | 0.00 | 0.00 | 52 | 1006.8 |
| 20260504214003 | 72 | 315 | 1.7 | 7.8 | 0.00 | 0.00 | 0.00 | 54 | 1006.8 |
| 20260504213503 | 72 | 257 | 2.6 | 8.7 | 0.00 | 0.00 | 0.00 | 53 | 1006.7 |
| 20260504213007 | 72 | 173 | 4.3 | 8.7 | 0.00 | 0.00 | 0.00 | 53 | 1006.6 |
| 20260504212504 | 72 | 219 | 2.6 | 9.6 | 0.00 | 0.00 | 0.00 | 55 | 1006.8 |
| 20260504212003 | 71 | 179 | 3.5 | 10.4 | 0.00 | 0.00 | 0.00 | 56 | 1006.8 |
| 20260504211514 | 71 | 229 | 2.6 | 10.4 | 0.00 | 0.00 | 0.00 | 56 | 1006.8 |
| 20260504211003 | 70 | 288 | 3.5 | 8.7 | 0.00 | 0.00 | 0.00 | 56 | 1006.9 |
| 20260504210504 | 70 | 165 | 4.3 | 8.7 | 0.00 | 0.00 | 0.00 | 56 | 1006.5 |
| 20260504210021 | 70 | 238 | 2.6 | 8.7 | 0.00 | 0.00 | 0.00 | 54 | 1006.6 |
| 20260504205504 | 70 | 213 | 1.7 | 10.4 | 0.00 | 0.00 | 0.00 | 56 | 1007.1 |
| 20260504205008 | 70 | 205 | 3.5 | 10.4 | 0.00 | 0.00 | 0.00 | 57 | 1007.4 |
| 20260504204523 | 70 | 252 | 1.7 | 10.4 | 0.00 | 0.00 | 0.00 | 56 | 1007.6 |
| 20260504204010 | 70 | 209 | 3.5 | 10.4 | 0.00 | 0.00 | 0.00 | 55 | 1007.5 |
| 20260504203509 | 71 | 226 | 4.3 | 9.6 | 0.00 | 0.00 | 0.00 | 55 | 1007.9 |
| 20260504203007 | 71 | 200 | 2.6 | 13.9 | 0.00 | 0.00 | 0.00 | 56 | 1007.8 |
| 20260504202506 | 70 | 256 | 5.2 | 13.9 | 0.00 | 0.00 | 0.00 | 55 | 1007.6 |
| 20260504202004 | 70 | 331 | 2.6 | 7.0 | 0.00 | 0.00 | 0.00 | 58 | 1007.4 |
| 20260504201512 | 69 | 157 | 2.6 | 8.7 | 0.00 | 0.00 | 0.00 | 59 | 1007.5 |
| 20260504201003 | 68 | 290 | 3.5 | 8.7 | 0.00 | 0.00 | 0.00 | 60 | 1007.5 |
| 20260504200503 | 68 | 294 | 2.6 | 7.8 | 0.00 | 0.00 | 0.00 | 1007.5 | |
| 20260504200020 | 67 | 144 | 3.5 | 11.3 | 0.00 | 0.00 | 0.00 | 1007.5 | |
| 20260504195503 | 67 | 49 | 1.7 | 11.3 | 0.00 | 0.00 | 0.00 | 1007.5 | |
| 20260504195007 | 68 | 216 | 2.6 | 9.6 | 0.00 | 0.00 | 0.00 | 60 | 1007.6 |
| 20260504194522 | 68 | 165 | 3.5 | 9.6 | 0.00 | 0.00 | 0.00 | 60 | 1007.9 |
| 20260504194009 | 68 | 137 | 3.5 | 9.6 | 0.00 | 0.00 | 0.00 | 60 | 1007.9 |
| 20260504193511 | 68 | 252 | 2.6 | 11.3 | 0.00 | 0.00 | 0.00 | 59 | 1007.8 |
| 20260504193026 | 68 | 265 | 5.2 | 11.3 | 0.00 | 0.00 | 0.00 | 58 | 1008.0 |
| 20260504192512 | 69 | 200 | 3.5 | 11.3 | 0.00 | 0.00 | 0.00 | 59 | 1008.4 |
| 20260504192005 | 69 | 245 | 2.6 | 11.3 | 0.00 | 0.00 | 0.00 | 58 | 1008.4 |
| 20260504191513 | 70 | 268 | 3.5 | 11.3 | 0.00 | 0.00 | 0.00 | 56 | 1008.5 |
| 20260504191004 | 70 | 263 | 3.5 | 13.0 | 0.00 | 0.00 | 0.00 | 55 | 1008.6 |
| 20260504190506 | 70 | 265 | 5.2 | 13.0 | 0.00 | 0.00 | 0.00 | 55 | 1008.4 |
| 20260504190018 | 70 | 269 | 3.5 | 11.3 | 0.00 | 0.00 | 0.00 | 55 | 1008.4 |
| 20260504185504 | 70 | 273 | 5.2 | 11.3 | 0.00 | 0.00 | 0.00 | 54 | 1008.5 |
| 20260504185004 | 71 | 276 | 2.6 | 10.4 | 0.00 | 0.00 | 0.00 | 53 | 1008.3 |
| 20260504184528 | 71 | 264 | 1.7 | 11.3 | 0.00 | 0.00 | 0.00 | 54 | 1008.1 |
| 20260504184009 | 71 | 250 | 2.6 | 12.2 | 0.00 | 0.00 | 0.00 | 54 | 1008.2 |
| 20260504183512 | 71 | 247 | 5.2 | 13.9 | 0.00 | 0.00 | 0.00 | 54 | 1008.1 |
| 20260504183033 | 71 | 169 | 5.2 | 14.8 | 0.00 | 0.00 | 0.00 | 52 | 1008.1 |
| 20260504182507 | 71 | 258 | 6.1 | 14.8 | 0.00 | 0.00 | 0.00 | 52 | 1008.2 |
| 20260504182016 | 72 | 156 | 4.3 | 12.2 | 0.00 | 0.00 | 0.00 | 52 | 1007.9 |
| 20260504181531 | 72 | 209 | 4.3 | 12.2 | 0.00 | 0.00 | 0.00 | 52 | 1007.8 |
| 20260504181004 | 72 | 273 | 4.3 | 14.8 | 0.00 | 0.00 | 0.00 | 52 | 1007.9 |
| 20260504180504 | 72 | 281 | 7.0 | 13.9 | 0.00 | 0.00 | 0.00 | 50 | 1007.9 |
| 20260504180014 | 73 | 254 | 6.1 | 16.5 | 0.00 | 0.00 | 0.00 | 50 | 1007.8 |
| 20260504175504 | 73 | 139 | 6.1 | 16.5 | 0.00 | 0.00 | 0.00 | 50 | 1007.8 |
| 20260504175003 | 73 | 221 | 2.6 | 11.3 | 0.00 | 0.00 | 0.00 | 53 | 1007.7 |
| 20260504174516 | 72 | 132 | 2.6 | 13.9 | 0.00 | 0.00 | 0.00 | 53 | 1007.7 |
| 20260504174005 | 72 | 215 | 3.5 | 13.9 | 0.00 | 0.00 | 0.00 | 52 | 1007.9 |
| 20260504173506 | 72 | 279 | 4.3 | 13.0 | 0.00 | 0.00 | 0.00 | 50 | 1007.8 |
| 20260504173024 | 72 | 215 | 5.2 | 10.4 | 0.00 | 0.00 | 0.00 | 51 | 1007.8 |
| 20260504172512 | 72 | 247 | 4.3 | 14.8 | 0.00 | 0.00 | 0.00 | 53 | 1007.7 |
| 20260504172011 | 72 | 236 | 4.3 | 14.8 | 0.00 | 0.00 | 0.00 | 50 | 1007.8 |
| 20260504171526 | 72 | 210 | 3.5 | 12.2 | 0.00 | 0.00 | 0.00 | 52 | 1007.9 |
| 20260504171011 | 72 | 257 | 4.3 | 12.2 | 0.00 | 0.00 | 0.00 | 52 | 1007.9 |
| 20260504170513 | 71 | 219 | 3.5 | 12.2 | 0.00 | 0.00 | 0.00 | 53 | 1007.9 |
| 20260504151008 | 65 | 254 | 4.3 | 9.6 | 0.00 | 0.00 | 0.00 | 59 | 1009.0 |
| 20260504150504 | 65 | 171 | 2.6 | 7.0 | 0.00 | 0.00 | 0.00 | 61 | 1009.0 |
| 20260504141013 | 61 | 151 | 3.5 | 9.6 | 0.00 | 0.00 | 0.00 | 63 | 1009.3 |
| 20260504140508 | 60 | 205 | 2.6 | 9.6 | 0.00 | 0.00 | 0.00 | 63 | 1009.3 |
| 20260504130507 | 55 | 205 | 1.7 | 9.6 | 0.00 | 0.00 | 0.00 | 65 | 1009.7 |
| 20260504110504 | 49 | 164 | 2.6 | 7.8 | 0.00 | 0.00 | 0.00 | 69 | 1009.5 |
| 20260504100504 | 49 | 208 | 3.5 | 7.0 | 0.00 | 0.00 | 0.00 | 67 | 1009.9 |
| 20260504081528 | 50 | 157 | 1.7 | 7.0 | 0.00 | 0.00 | 0.00 | 64 | 1010.6 |
| 20260504081007 | 50 | 169 | 3.5 | 7.0 | 0.00 | 0.00 | 0.00 | 64 | 1010.6 |
| 20260504080519 | 50 | 138 | 2.6 | 8.7 | 0.00 | 0.00 | 0.00 | 64 | 1010.6 |
| 20260504050503 | 52 | 167 | 2.6 | 7.8 | 0.00 | 0.00 | 0.00 | 58 | 1012.1 |
| 20260504050006 | 52 | 188 | 2.6 | 7.8 | 0.00 | 0.00 | 0.00 | 58 | 1012.2 |
| 20260504045503 | 52 | 175 | 2.6 | 8.7 | 0.00 | 0.00 | 0.00 | 58 | 1012.2 |
| 20260504045005 | 52 | 150 | 3.5 | 8.7 | 0.00 | 0.00 | 0.00 | 58 | 1012.2 |
| 20260504044512 | 52 | 174 | 1.7 | 7.8 | 0.00 | 0.00 | 0.00 | 58 | 1012.3 |
| 20260504044006 | 52 | 223 | 2.6 | 7.8 | 0.00 | 0.00 | 0.00 | 58 | 1012.3 |
| 20260504043504 | 52 | 173 | 2.6 | 8.7 | 0.00 | 0.00 | 0.00 | 58 | 1012.3 |
| 20260504043016 | 52 | 158 | 2.6 | 8.7 | 0.00 | 0.00 | 0.00 | 58 | 1012.4 |
| 20260504042505 | 52 | 232 | 0.9 | 7.0 | 0.00 | 0.00 | 0.00 | 59 | 1012.5 |
| 20260504042005 | 52 | 185 | 2.6 | 7.0 | 0.00 | 0.00 | 0.00 | 59 | 1012.5 |
| 20260504041513 | 52 | 177 | 1.7 | 6.1 | 0.00 | 0.00 | 0.00 | 59 | 1012.5 |
| 20260504041005 | 52 | 250 | 2.6 | 6.1 | 0.00 | 0.00 | 0.00 | 59 | 1012.6 |
| 20260504040503 | 52 | 178 | 1.7 | 5.2 | 0.00 | 0.00 | 0.00 | 60 | 1012.7 |
| 20260504040004 | 52 | 213 | 1.7 | 5.2 | 0.00 | 0.00 | 0.00 | 60 | 1012.8 |
| 20260504035503 | 52 | 166 | 2.6 | 6.1 | 0.00 | 0.00 | 0.00 | 60 | 1012.8 |
| 20260504035004 | 52 | 171 | 3.5 | 6.1 | 0.00 | 0.00 | 0.00 | 60 | 1012.8 |
| 20260504034509 | 52 | 168 | 2.6 | 4.3 | 0.00 | 0.00 | 0.00 | 61 | 1012.8 |
| 20260504034003 | 51 | 205 | 1.7 | 6.1 | 0.00 | 0.00 | 0.00 | 61 | 1012.8 |
| 20260504033504 | 51 | 155 | 3.5 | 6.1 | 0.00 | 0.00 | 0.00 | 62 | 1012.9 |
| 20260504033013 | 51 | 165 | 2.6 | 6.1 | 0.00 | 0.00 | 0.00 | 63 | 1012.9 |
| 20260504032504 | 51 | 157 | 1.7 | 5.2 | 0.00 | 0.00 | 0.00 | 64 | 1012.9 |
| 20260504032006 | 51 | 169 | 1.7 | 5.2 | 0.00 | 0.00 | 0.00 | 65 | 1013.0 |
| 20260504031516 | 51 | 153 | 1.7 | 4.3 | 0.00 | 0.00 | 0.00 | 66 | 1013.0 |
| 20260504031007 | 50 | 190 | 2.6 | 4.3 | 0.00 | 0.00 | 0.00 | 66 | 1013.0 |
| 20260504030505 | 50 | 168 | 1.7 | 5.2 | 0.00 | 0.00 | 0.00 | 67 | 1013.1 |
| 20260504030018 | 50 | 153 | 1.7 | 5.2 | 0.00 | 0.00 | 0.00 | 67 | 1013.1 |
| 20260504025503 | 50 | 116 | 2.6 | 5.2 | 0.00 | 0.00 | 0.00 | 68 | 1013.2 |
| 20260504025006 | 50 | 134 | 1.7 | 3.5 | 0.00 | 0.00 | 0.00 | 69 | 1013.3 |
| 20260504024506 | 50 | 141 | 1.7 | 3.5 | 0.00 | 0.00 | 0.00 | 69 | 1013.3 |
| 20260504024004 | 50 | 159 | 1.7 | 4.3 | 0.00 | 0.00 | 0.00 | 69 | 1013.4 |
| 20260504023504 | 50 | 127 | 1.7 | 4.3 | 0.00 | 0.00 | 0.00 | 69 | 1013.4 |
| 20260504023011 | 50 | 131 | 1.7 | 3.5 | 0.00 | 0.00 | 0.00 | 69 | 1013.4 |
| 20260504022508 | 50 | 115 | 1.7 | 4.3 | 0.00 | 0.00 | 0.00 | 69 | 1013.4 |
| 20260504022004 | 50 | 137 | 2.6 | 4.3 | 0.00 | 0.00 | 0.00 | 69 | 1013.4 |
| 20260504021523 | 50 | 136 | 1.7 | 3.5 | 0.00 | 0.00 | 0.00 | 69 | 1013.4 |
| 20260504021005 | 50 | 140 | 1.7 | 3.5 | 0.00 | 0.00 | 0.00 | 69 | 1013.5 |
| 20260504020507 | 50 | 144 | 1.7 | 5.2 | 0.00 | 0.00 | 0.00 | 69 | 1013.5 |
| 20260504020025 | 50 | 117 | 1.7 | 5.2 | 0.00 | 0.00 | 0.00 | 69 | 1013.5 |
| 20260504015503 | 49 | 126 | 2.6 | 5.2 | 0.00 | 0.00 | 0.00 | 69 | 1013.4 |
| 20260504015006 | 49 | 117 | 2.6 | 6.1 | 0.00 | 0.00 | 0.00 | 69 | 1013.4 |
| 20260504014517 | 49 | 121 | 2.6 | 6.1 | 0.00 | 0.00 | 0.00 | 69 | 1013.4 |
| 20260504014002 | 49 | 117 | 2.6 | 6.1 | 0.00 | 0.00 | 0.00 | 70 | 1013.5 |
| 20260504013503 | 49 | 118 | 1.7 | 3.5 | 0.00 | 0.00 | 0.00 | 70 | 1013.5 |
| 20260504013006 | 49 | 137 | 1.7 | 5.2 | 0.00 | 0.00 | 0.00 | 70 | 1013.5 |
| 20260504012503 | 49 | 116 | 1.7 | 6.1 | 0.00 | 0.00 | 0.00 | 70 | 1013.5 |
| 20260504012003 | 49 | 124 | 3.5 | 6.1 | 0.00 | 0.00 | 0.00 | 70 | 1013.4 |
| 20260504011515 | 49 | 117 | 2.6 | 6.1 | 0.00 | 0.00 | 0.00 | 70 | 1013.5 |
| 20260504011007 | 49 | 134 | 1.7 | 3.5 | 0.00 | 0.00 | 0.00 | 70 | 1013.5 |
| 20260504010505 | 49 | 92 | 2.6 | 3.5 | 0.00 | 0.00 | 0.00 | 69 | 1013.6 |
| 20260504010016 | 49 | 110 | 1.7 | 5.2 | 0.00 | 0.00 | 0.00 | 69 | 1013.6 |
| 20260504005504 | 49 | 114 | 2.6 | 5.2 | 0.00 | 0.00 | 0.00 | 68 | 1013.5 |
| 20260504005008 | 49 | 103 | 2.6 | 5.2 | 0.00 | 0.00 | 0.00 | 68 | 1013.5 |
| 20260504004534 | 49 | 103 | 1.7 | 3.5 | 0.00 | 0.00 | 0.00 | 68 | 1013.5 |
| 20260504004004 | 50 | 121 | 1.7 | 5.2 | 0.00 | 0.00 | 0.00 | 67 | 1013.4 |
| 20260504003510 | 50 | 117 | 2.6 | 5.2 | 0.00 | 0.00 | 0.00 | 67 | 1013.4 |
| 20260504003005 | 50 | 113 | 1.7 | 5.2 | 0.00 | 0.00 | 0.00 | 67 | 1013.5 |
| 20260504002503 | 50 | 121 | 2.6 | 5.2 | 0.00 | 0.00 | 0.00 | 67 | 1013.6 |
| 20260504002003 | 49 | 117 | 1.7 | 5.2 | 0.00 | 0.00 | 0.00 | 67 | 1013.6 |
| 20260504001526 | 49 | 111 | 1.7 | 5.2 | 0.00 | 0.00 | 0.00 | 68 | 1013.5 |
| 20260504001004 | 49 | 102 | 2.6 | 5.2 | 0.00 | 0.00 | 0.00 | 68 | 1013.4 |
| 20260504000504 | 49 | 119 | 2.6 | 5.2 | 0.00 | 0.00 | 0.00 | 68 | 1013.4 |
| 20260504000016 | 49 | 119 | 2.6 | 5.2 | 0.00 | 0.00 | 0.00 | 70 | 1013.3 |
| 20260503235504 | 49 | 121 | 2.6 | 7.8 | 0.00 | 0.00 | 0.00 | 69 | 1013.4 |
| 20260503235005 | 49 | 121 | 3.5 | 7.8 | 0.00 | 0.00 | 0.00 | 70 | 1013.4 |
| 20260503234524 | 49 | 105 | 3.5 | 7.0 | 0.00 | 0.00 | 0.00 | 71 | 1013.4 |
| 20260503234005 | 49 | 109 | 2.6 | 7.0 | 0.00 | 0.00 | 0.00 | 71 | 1013.3 |
| 20260503233509 | 49 | 84 | 2.6 | 6.1 | 0.00 | 0.00 | 0.00 | 71 | 1013.3 |
| 20260503233022 | 49 | 82 | 3.5 | 6.1 | 0.00 | 0.00 | 0.00 | 72 | 1013.4 |
| 20260503232507 | 49 | 99 | 2.6 | 6.1 | 0.00 | 0.00 | 0.00 | 72 | 1013.5 |
| 20260503232007 | 49 | 102 | 2.6 | 6.1 | 0.00 | 0.00 | 0.00 | 72 | 1013.6 |
| 20260503231508 | 49 | 101 | 1.7 | 6.1 | 0.00 | 0.00 | 0.00 | 72 | 1013.7 |
| 20260503231004 | 49 | 124 | 3.5 | 6.1 | 0.00 | 0.00 | 0.00 | 73 | 1013.7 |
| 20260503230503 | 49 | 114 | 2.6 | 6.1 | 0.00 | 0.00 | 0.00 | 73 | 1013.8 |
| 20260503230012 | 49 | 124 | 2.6 | 6.1 | 0.00 | 0.00 | 0.00 | 73 | 1013.9 |
| 20260503225503 | 49 | 105 | 1.7 | 5.2 | 0.00 | 0.00 | 0.00 | 74 | 1014.0 |
| 20260503225005 | 49 | 134 | 1.7 | 5.2 | 0.00 | 0.00 | 0.00 | 74 | 1014.4 |
| 20260503224517 | 49 | 78 | 2.6 | 6.1 | 0.00 | 0.00 | 0.00 | 74 | 1014.5 |
| 20260503224008 | 49 | 90 | 3.5 | 6.1 | 0.00 | 0.00 | 0.00 | 74 | 1014.5 |
| 20260503223508 | 49 | 88 | 3.5 | 4.3 | 0.00 | 0.00 | 0.00 | 75 | 1014.7 |
| 20260503223023 | 49 | 91 | 2.6 | 3.5 | 0.00 | 0.00 | 0.00 | 74 | 1014.9 |
| 20260503222507 | 49 | 96 | 0.9 | 3.5 | 0.00 | 0.00 | 0.00 | 73 | 1015.2 |
| 20260503222007 | 49 | 90 | 1.7 | 3.5 | 0.00 | 0.00 | 0.00 | 72 | 1015.2 |
| 20260503221523 | 49 | 44 | 1.7 | 3.5 | 0.00 | 0.00 | 0.00 | 71 | 1015.0 |
| 20260503221007 | 50 | 75 | 1.7 | 2.6 | 0.00 | 0.00 | 0.00 | 71 | 1015.1 |
| 20260503220505 | 50 | 51 | 0.9 | 3.5 | 0.00 | 0.00 | 0.00 | 69 | 1015.3 |
| 20260503220020 | 51 | 27 | 1.7 | 3.5 | 0.00 | 0.00 | 0.00 | 68 | 1015.4 |
| 20260503215504 | 51 | 287 | 0.0 | 7.0 | 0.00 | 0.00 | 0.00 | 66 | 1015.7 |